sensor_id;sensor_type;location;lat;lon;timestamp;temperature;humidity
79750;SHT31;69233;51.968;5.658;2023-07-31T00:00:13;17.8;79.6
79750;SHT31;69233;51.968;5.658;2023-07-31T00:02:43;17.8;79.7
79750;SHT31;69233;51.968;5.658;2023-07-31T00:05:12;17.8;79.8
79750;SHT31;69233;51.968;5.658;2023-07-31T00:07:42;17.8;79.7
79750;SHT31;69233;51.968;5.658;2023-07-31T00:10:12;17.8;79.8
79750;SHT31;69233;51.968;5.658;2023-07-31T00:12:45;17.8;80.0
79750;SHT31;69233;51.968;5.658;2023-07-31T00:15:15;17.9;79.9
79750;SHT31;69233;51.968;5.658;2023-07-31T00:17:45;17.9;79.6
79750;SHT31;69233;51.968;5.658;2023-07-31T00:20:16;17.9;79.8
79750;SHT31;69233;51.968;5.658;2023-07-31T00:22:46;17.9;79.8
79750;SHT31;69233;51.968;5.658;2023-07-31T00:25:16;17.9;80.4
79750;SHT31;69233;51.968;5.658;2023-07-31T00:27:45;17.9;80.5
79750;SHT31;69233;51.968;5.658;2023-07-31T00:30:14;18.0;80.9
79750;SHT31;69233;51.968;5.658;2023-07-31T00:32:44;18.0;81.2
79750;SHT31;69233;51.968;5.658;2023-07-31T00:35:15;18.0;81.3
79750;SHT31;69233;51.968;5.658;2023-07-31T00:37:45;18.0;81.4
79750;SHT31;69233;51.968;5.658;2023-07-31T00:40:16;18.1;81.2
79750;SHT31;69233;51.968;5.658;2023-07-31T00:42:46;18.1;81.3
79750;SHT31;69233;51.968;5.658;2023-07-31T00:45:15;18.1;81.4
79750;SHT31;69233;51.968;5.658;2023-07-31T00:47:45;18.2;81.7
79750;SHT31;69233;51.968;5.658;2023-07-31T00:50:14;18.2;81.9
79750;SHT31;69233;51.968;5.658;2023-07-31T00:52:44;18.3;82.0
79750;SHT31;69233;51.968;5.658;2023-07-31T00:55:14;18.3;82.0
79750;SHT31;69233;51.968;5.658;2023-07-31T00:57:45;18.3;82.1
79750;SHT31;69233;51.968;5.658;2023-07-31T01:00:16;18.4;82.1
79750;SHT31;69233;51.968;5.658;2023-07-31T01:02:46;18.4;82.1
79750;SHT31;69233;51.968;5.658;2023-07-31T01:05:21;18.5;81.8
79750;SHT31;69233;51.968;5.658;2023-07-31T01:08:02;18.5;81.6
79750;SHT31;69233;51.968;5.658;2023-07-31T01:10:40;18.6;81.4
79750;SHT31;69233;51.968;5.658;2023-07-31T01:13:10;18.6;81.2
79750;SHT31;69233;51.968;5.658;2023-07-31T01:15:40;18.7;81.0
79750;SHT31;69233;51.968;5.658;2023-07-31T01:18:10;18.7;80.5
79750;SHT31;69233;51.968;5.658;2023-07-31T01:20:42;18.8;80.2
79750;SHT31;69233;51.968;5.658;2023-07-31T01:23:39;18.8;79.9
79750;SHT31;69233;51.968;5.658;2023-07-31T01:26:21;18.8;79.8
79750;SHT31;69233;51.968;5.658;2023-07-31T01:28:56;18.9;79.5
79750;SHT31;69233;51.968;5.658;2023-07-31T01:31:32;18.9;79.4
79750;SHT31;69233;51.968;5.658;2023-07-31T01:34:02;18.9;79.4
79750;SHT31;69233;51.968;5.658;2023-07-31T01:36:32;19.0;79.1
79750;SHT31;69233;51.968;5.658;2023-07-31T01:39:02;19.0;79.3
79750;SHT31;69233;51.968;5.658;2023-07-31T01:41:31;19.0;78.7
79750;SHT31;69233;51.968;5.658;2023-07-31T01:44:01;19.1;78.5
79750;SHT31;69233;51.968;5.658;2023-07-31T01:46:30;19.1;78.4
79750;SHT31;69233;51.968;5.658;2023-07-31T01:49:00;19.1;78.3
79750;SHT31;69233;51.968;5.658;2023-07-31T01:51:29;19.1;78.3
79750;SHT31;69233;51.968;5.658;2023-07-31T01:54:01;19.1;78.0
79750;SHT31;69233;51.968;5.658;2023-07-31T01:56:33;19.2;78.1
79750;SHT31;69233;51.968;5.658;2023-07-31T01:59:02;19.2;77.9
79750;SHT31;69233;51.968;5.658;2023-07-31T02:01:32;19.2;77.9
79750;SHT31;69233;51.968;5.658;2023-07-31T02:04:01;19.2;77.7
79750;SHT31;69233;51.968;5.658;2023-07-31T02:06:32;19.2;78.0
79750;SHT31;69233;51.968;5.658;2023-07-31T02:09:02;19.2;78.0
79750;SHT31;69233;51.968;5.658;2023-07-31T02:11:31;19.2;78.0
79750;SHT31;69233;51.968;5.658;2023-07-31T02:14:01;19.2;77.6
79750;SHT31;69233;51.968;5.658;2023-07-31T02:16:30;19.2;77.9
79750;SHT31;69233;51.968;5.658;2023-07-31T02:19:00;19.2;77.9
79750;SHT31;69233;51.968;5.658;2023-07-31T02:21:29;19.2;77.9
79750;SHT31;69233;51.968;5.658;2023-07-31T02:23:59;19.2;78.1
79750;SHT31;69233;51.968;5.658;2023-07-31T02:26:28;19.1;78.0
79750;SHT31;69233;51.968;5.658;2023-07-31T02:28:58;19.1;78.1
79750;SHT31;69233;51.968;5.658;2023-07-31T02:31:27;19.1;78.3
79750;SHT31;69233;51.968;5.658;2023-07-31T02:33:57;19.1;78.2
79750;SHT31;69233;51.968;5.658;2023-07-31T02:36:27;19.1;78.3
79750;SHT31;69233;51.968;5.658;2023-07-31T02:38:56;19.1;78.1
79750;SHT31;69233;51.968;5.658;2023-07-31T02:41:26;19.1;78.2
79750;SHT31;69233;51.968;5.658;2023-07-31T02:43:55;19.1;78.4
79750;SHT31;69233;51.968;5.658;2023-07-31T02:46:25;19.1;78.3
79750;SHT31;69233;51.968;5.658;2023-07-31T02:48:56;19.1;78.2
79750;SHT31;69233;51.968;5.658;2023-07-31T02:51:25;19.1;78.1
79750;SHT31;69233;51.968;5.658;2023-07-31T02:53:55;19.1;78.1
79750;SHT31;69233;51.968;5.658;2023-07-31T02:56:24;19.1;77.6
79750;SHT31;69233;51.968;5.658;2023-07-31T02:58:54;19.1;77.7
79750;SHT31;69233;51.968;5.658;2023-07-31T03:01:23;19.1;77.5
79750;SHT31;69233;51.968;5.658;2023-07-31T03:03:53;19.1;77.1
79750;SHT31;69233;51.968;5.658;2023-07-31T03:06:22;19.1;77.2
79750;SHT31;69233;51.968;5.658;2023-07-31T03:08:51;19.1;77.4
79750;SHT31;69233;51.968;5.658;2023-07-31T03:11:21;19.0;77.2
79750;SHT31;69233;51.968;5.658;2023-07-31T03:13:50;19.0;77.3
79750;SHT31;69233;51.968;5.658;2023-07-31T03:16:20;19.0;76.8
79750;SHT31;69233;51.968;5.658;2023-07-31T03:18:49;19.0;77.0
79750;SHT31;69233;51.968;5.658;2023-07-31T03:21:19;19.1;77.2
79750;SHT31;69233;51.968;5.658;2023-07-31T03:23:48;19.1;76.3
79750;SHT31;69233;51.968;5.658;2023-07-31T03:26:18;19.1;76.3
79750;SHT31;69233;51.968;5.658;2023-07-31T03:28:47;19.1;75.9
79750;SHT31;69233;51.968;5.658;2023-07-31T03:31:17;19.0;75.8
79750;SHT31;69233;51.968;5.658;2023-07-31T03:33:46;19.0;76.1
79750;SHT31;69233;51.968;5.658;2023-07-31T03:36:15;19.0;76.6
79750;SHT31;69233;51.968;5.658;2023-07-31T03:38:46;19.0;76.6
79750;SHT31;69233;51.968;5.658;2023-07-31T03:41:15;19.0;76.1
79750;SHT31;69233;51.968;5.658;2023-07-31T03:43:46;19.0;75.8
79750;SHT31;69233;51.968;5.658;2023-07-31T03:46:15;19.0;76.0
79750;SHT31;69233;51.968;5.658;2023-07-31T03:48:45;19.0;76.4
79750;SHT31;69233;51.968;5.658;2023-07-31T03:51:14;19.0;76.6
79750;SHT31;69233;51.968;5.658;2023-07-31T03:53:44;19.0;76.5
79750;SHT31;69233;51.968;5.658;2023-07-31T03:56:16;19.0;75.8
79750;SHT31;69233;51.968;5.658;2023-07-31T03:58:45;19.0;76.0
79750;SHT31;69233;51.968;5.658;2023-07-31T04:01:15;19.0;75.9
79750;SHT31;69233;51.968;5.658;2023-07-31T04:03:45;19.0;76.0
79750;SHT31;69233;51.968;5.658;2023-07-31T04:06:14;19.0;75.4
79750;SHT31;69233;51.968;5.658;2023-07-31T04:08:45;19.0;75.6
79750;SHT31;69233;51.968;5.658;2023-07-31T04:11:15;19.0;75.4
79750;SHT31;69233;51.968;5.658;2023-07-31T04:13:44;19.0;76.0
79750;SHT31;69233;51.968;5.658;2023-07-31T04:16:14;19.0;76.3
79750;SHT31;69233;51.968;5.658;2023-07-31T04:18:43;19.0;75.8
79750;SHT31;69233;51.968;5.658;2023-07-31T04:21:12;19.0;76.1
79750;SHT31;69233;51.968;5.658;2023-07-31T04:23:42;19.0;76.2
79750;SHT31;69233;51.968;5.658;2023-07-31T04:26:11;19.0;75.4
79750;SHT31;69233;51.968;5.658;2023-07-31T04:28:41;19.0;75.7
79750;SHT31;69233;51.968;5.658;2023-07-31T04:31:10;19.0;75.3
79750;SHT31;69233;51.968;5.658;2023-07-31T04:33:42;19.0;74.6
79750;SHT31;69233;51.968;5.658;2023-07-31T04:36:11;19.0;75.3
79750;SHT31;69233;51.968;5.658;2023-07-31T04:38:42;19.0;75.0
79750;SHT31;69233;51.968;5.658;2023-07-31T04:41:12;19.0;76.1
79750;SHT31;69233;51.968;5.658;2023-07-31T04:43:41;19.0;75.6
79750;SHT31;69233;51.968;5.658;2023-07-31T04:46:11;19.0;76.0
79750;SHT31;69233;51.968;5.658;2023-07-31T04:48:40;19.0;74.6
79750;SHT31;69233;51.968;5.658;2023-07-31T04:51:10;19.0;75.0
79750;SHT31;69233;51.968;5.658;2023-07-31T04:53:41;19.0;74.4
79750;SHT31;69233;51.968;5.658;2023-07-31T04:56:11;19.0;73.7
79750;SHT31;69233;51.968;5.658;2023-07-31T04:58:41;19.0;75.4
79750;SHT31;69233;51.968;5.658;2023-07-31T05:01:10;19.0;75.0
79750;SHT31;69233;51.968;5.658;2023-07-31T05:03:40;19.0;74.8
79750;SHT31;69233;51.968;5.658;2023-07-31T05:06:09;19.0;75.4
79750;SHT31;69233;51.968;5.658;2023-07-31T05:08:39;19.0;75.4
79750;SHT31;69233;51.968;5.658;2023-07-31T05:11:09;19.0;75.7
79750;SHT31;69233;51.968;5.658;2023-07-31T05:13:38;19.0;75.6
79750;SHT31;69233;51.968;5.658;2023-07-31T05:16:08;19.0;74.7
79750;SHT31;69233;51.968;5.658;2023-07-31T05:18:37;19.0;75.3
79750;SHT31;69233;51.968;5.658;2023-07-31T05:21:06;19.0;75.9
79750;SHT31;69233;51.968;5.658;2023-07-31T05:23:36;19.0;75.8
79750;SHT31;69233;51.968;5.658;2023-07-31T05:26:06;18.9;76.0
79750;SHT31;69233;51.968;5.658;2023-07-31T05:28:37;18.9;76.1
79750;SHT31;69233;51.968;5.658;2023-07-31T05:31:07;18.9;76.2
79750;SHT31;69233;51.968;5.658;2023-07-31T05:33:36;18.9;76.2
79750;SHT31;69233;51.968;5.658;2023-07-31T05:36:06;18.9;76.6
79750;SHT31;69233;51.968;5.658;2023-07-31T05:38:35;18.9;76.9
79750;SHT31;69233;51.968;5.658;2023-07-31T05:41:05;18.9;77.0
79750;SHT31;69233;51.968;5.658;2023-07-31T05:43:34;18.9;77.1
79750;SHT31;69233;51.968;5.658;2023-07-31T05:46:03;18.8;77.1
79750;SHT31;69233;51.968;5.658;2023-07-31T05:48:34;18.8;77.0
79750;SHT31;69233;51.968;5.658;2023-07-31T05:51:03;18.8;77.2
79750;SHT31;69233;51.968;5.658;2023-07-31T05:53:33;18.7;77.6
79750;SHT31;69233;51.968;5.658;2023-07-31T05:56:05;18.7;78.2
79750;SHT31;69233;51.968;5.658;2023-07-31T05:58:35;18.6;78.5
79750;SHT31;69233;51.968;5.658;2023-07-31T06:01:04;18.6;79.0
79750;SHT31;69233;51.968;5.658;2023-07-31T06:03:34;18.6;79.0
79750;SHT31;69233;51.968;5.658;2023-07-31T06:06:03;18.5;79.1
79750;SHT31;69233;51.968;5.658;2023-07-31T06:08:33;18.5;79.5
79750;SHT31;69233;51.968;5.658;2023-07-31T06:11:03;18.5;79.6
79750;SHT31;69233;51.968;5.658;2023-07-31T06:13:33;18.5;79.4
79750;SHT31;69233;51.968;5.658;2023-07-31T06:16:02;18.4;79.9
79750;SHT31;69233;51.968;5.658;2023-07-31T06:18:33;18.4;80.4
79750;SHT31;69233;51.968;5.658;2023-07-31T06:21:03;18.4;80.2
79750;SHT31;69233;51.968;5.658;2023-07-31T06:23:32;18.4;80.5
79750;SHT31;69233;51.968;5.658;2023-07-31T06:26:02;18.4;80.6
79750;SHT31;69233;51.968;5.658;2023-07-31T06:28:33;18.4;80.8
79750;SHT31;69233;51.968;5.658;2023-07-31T06:31:02;18.4;81.1
79750;SHT31;69233;51.968;5.658;2023-07-31T06:33:32;18.4;81.2
79750;SHT31;69233;51.968;5.658;2023-07-31T06:36:01;18.4;81.5
79750;SHT31;69233;51.968;5.658;2023-07-31T06:38:30;18.4;81.6
79750;SHT31;69233;51.968;5.658;2023-07-31T06:41:00;18.4;81.7
79750;SHT31;69233;51.968;5.658;2023-07-31T06:43:29;18.5;81.6
79750;SHT31;69233;51.968;5.658;2023-07-31T06:46:00;18.5;81.3
79750;SHT31;69233;51.968;5.658;2023-07-31T06:48:33;18.5;81.4
79750;SHT31;69233;51.968;5.658;2023-07-31T06:51:06;18.5;81.2
79750;SHT31;69233;51.968;5.658;2023-07-31T06:53:35;18.5;81.5
79750;SHT31;69233;51.968;5.658;2023-07-31T06:56:05;18.5;81.0
79750;SHT31;69233;51.968;5.658;2023-07-31T06:58:35;18.6;81.2
79750;SHT31;69233;51.968;5.658;2023-07-31T07:01:04;18.6;81.3
79750;SHT31;69233;51.968;5.658;2023-07-31T07:03:36;18.6;81.6
79750;SHT31;69233;51.968;5.658;2023-07-31T07:06:05;18.6;81.5
79750;SHT31;69233;51.968;5.658;2023-07-31T07:08:35;18.6;81.8
79750;SHT31;69233;51.968;5.658;2023-07-31T07:11:04;18.7;82.0
79750;SHT31;69233;51.968;5.658;2023-07-31T07:13:34;18.7;81.7
79750;SHT31;69233;51.968;5.658;2023-07-31T07:16:03;18.7;81.8
79750;SHT31;69233;51.968;5.658;2023-07-31T07:18:33;18.7;81.8
79750;SHT31;69233;51.968;5.658;2023-07-31T07:21:02;18.8;81.6
79750;SHT31;69233;51.968;5.658;2023-07-31T07:23:32;18.8;81.4
79750;SHT31;69233;51.968;5.658;2023-07-31T07:26:01;18.8;81.3
79750;SHT31;69233;51.968;5.658;2023-07-31T07:28:30;18.8;81.2
79750;SHT31;69233;51.968;5.658;2023-07-31T07:31:00;18.8;81.3
79750;SHT31;69233;51.968;5.658;2023-07-31T07:33:30;18.8;81.5
79750;SHT31;69233;51.968;5.658;2023-07-31T07:36:02;18.8;81.4
79750;SHT31;69233;51.968;5.658;2023-07-31T07:38:33;18.9;80.9
79750;SHT31;69233;51.968;5.658;2023-07-31T07:41:02;18.9;81.1
79750;SHT31;69233;51.968;5.658;2023-07-31T07:43:32;18.9;81.0
79750;SHT31;69233;51.968;5.658;2023-07-31T07:46:01;18.9;81.2
79750;SHT31;69233;51.968;5.658;2023-07-31T07:48:31;18.9;81.1
79750;SHT31;69233;51.968;5.658;2023-07-31T07:51:00;19.0;80.8
79750;SHT31;69233;51.968;5.658;2023-07-31T07:53:30;19.0;81.0
79750;SHT31;69233;51.968;5.658;2023-07-31T07:55:59;19.0;80.7
79750;SHT31;69233;51.968;5.658;2023-07-31T07:58:29;19.0;81.0
79750;SHT31;69233;51.968;5.658;2023-07-31T08:00:58;19.0;81.1
79750;SHT31;69233;51.968;5.658;2023-07-31T08:03:28;19.0;81.4
79750;SHT31;69233;51.968;5.658;2023-07-31T08:06:00;19.0;81.2
79750;SHT31;69233;51.968;5.658;2023-07-31T08:08:29;19.1;81.1
79750;SHT31;69233;51.968;5.658;2023-07-31T08:10:59;19.1;81.2
79750;SHT31;69233;51.968;5.658;2023-07-31T08:13:28;19.1;81.5
79750;SHT31;69233;51.968;5.658;2023-07-31T08:15:58;19.1;81.7
79750;SHT31;69233;51.968;5.658;2023-07-31T08:18:28;19.2;81.6
79750;SHT31;69233;51.968;5.658;2023-07-31T08:20:59;19.2;81.6
79750;SHT31;69233;51.968;5.658;2023-07-31T08:23:28;19.2;81.5
79750;SHT31;69233;51.968;5.658;2023-07-31T08:25:58;19.3;81.2
79750;SHT31;69233;51.968;5.658;2023-07-31T08:28:27;19.3;80.8
79750;SHT31;69233;51.968;5.658;2023-07-31T08:30:57;19.3;80.8
79750;SHT31;69233;51.968;5.658;2023-07-31T08:33:26;19.4;80.5
79750;SHT31;69233;51.968;5.658;2023-07-31T08:35:57;19.4;80.8
79750;SHT31;69233;51.968;5.658;2023-07-31T08:38:30;19.4;81.3
79750;SHT31;69233;51.968;5.658;2023-07-31T08:41:00;19.4;81.0
79750;SHT31;69233;51.968;5.658;2023-07-31T08:43:30;19.5;81.0
79750;SHT31;69233;51.968;5.658;2023-07-31T08:46:00;19.5;81.0
79750;SHT31;69233;51.968;5.658;2023-07-31T08:48:31;19.5;80.7
79750;SHT31;69233;51.968;5.658;2023-07-31T08:51:01;19.5;80.6
79750;SHT31;69233;51.968;5.658;2023-07-31T08:53:31;19.6;80.8
79750;SHT31;69233;51.968;5.658;2023-07-31T08:56:01;19.6;80.6
79750;SHT31;69233;51.968;5.658;2023-07-31T08:58:32;19.6;80.4
79750;SHT31;69233;51.968;5.658;2023-07-31T09:01:04;19.6;80.3
79750;SHT31;69233;51.968;5.658;2023-07-31T09:03:35;19.6;80.2
79750;SHT31;69233;51.968;5.658;2023-07-31T09:06:06;19.6;80.2
79750;SHT31;69233;51.968;5.658;2023-07-31T09:08:43;19.6;80.1
79750;SHT31;69233;51.968;5.658;2023-07-31T09:11:13;19.7;80.3
79750;SHT31;69233;51.968;5.658;2023-07-31T09:13:43;19.7;80.2
79750;SHT31;69233;51.968;5.658;2023-07-31T09:16:13;19.7;80.3
79750;SHT31;69233;51.968;5.658;2023-07-31T09:18:55;19.7;80.2
79750;SHT31;69233;51.968;5.658;2023-07-31T09:21:26;19.7;79.4
79750;SHT31;69233;51.968;5.658;2023-07-31T09:23:55;19.7;79.3
79750;SHT31;69233;51.968;5.658;2023-07-31T09:26:32;19.7;79.6
79750;SHT31;69233;51.968;5.658;2023-07-31T09:29:05;19.7;80.1
79750;SHT31;69233;51.968;5.658;2023-07-31T09:31:42;19.7;80.1
79750;SHT31;69233;51.968;5.658;2023-07-31T09:34:12;19.7;79.1
79750;SHT31;69233;51.968;5.658;2023-07-31T09:36:44;19.7;79.8
79750;SHT31;69233;51.968;5.658;2023-07-31T09:39:15;19.8;80.4
79750;SHT31;69233;51.968;5.658;2023-07-31T09:41:47;19.8;80.2
79750;SHT31;69233;51.968;5.658;2023-07-31T09:44:21;19.8;80.7
79750;SHT31;69233;51.968;5.658;2023-07-31T09:46:56;19.9;80.9
79750;SHT31;69233;51.968;5.658;2023-07-31T09:49:25;19.9;80.7
79750;SHT31;69233;51.968;5.658;2023-07-31T09:51:55;20.0;80.7
79750;SHT31;69233;51.968;5.658;2023-07-31T09:54:25;20.0;79.9
79750;SHT31;69233;51.968;5.658;2023-07-31T09:56:54;20.1;79.2
79750;SHT31;69233;51.968;5.658;2023-07-31T09:59:25;20.1;79.2
79750;SHT31;69233;51.968;5.658;2023-07-31T10:01:56;20.1;78.8
79750;SHT31;69233;51.968;5.658;2023-07-31T10:04:28;20.2;78.8
79750;SHT31;69233;51.968;5.658;2023-07-31T10:07:00;20.2;78.4
79750;SHT31;69233;51.968;5.658;2023-07-31T10:09:32;20.2;78.0
79750;SHT31;69233;51.968;5.658;2023-07-31T10:12:09;20.3;77.6
79750;SHT31;69233;51.968;5.658;2023-07-31T10:14:42;20.3;77.9
79750;SHT31;69233;51.968;5.658;2023-07-31T10:17:13;20.3;78.1
79750;SHT31;69233;51.968;5.658;2023-07-31T10:19:46;20.3;78.5
79750;SHT31;69233;51.968;5.658;2023-07-31T10:22:16;20.3;78.9
79750;SHT31;69233;51.968;5.658;2023-07-31T10:24:46;20.4;78.6
79750;SHT31;69233;51.968;5.658;2023-07-31T10:27:19;20.4;78.4
79750;SHT31;69233;51.968;5.658;2023-07-31T10:29:49;20.4;77.9
79750;SHT31;69233;51.968;5.658;2023-07-31T10:32:22;20.5;78.1
79750;SHT31;69233;51.968;5.658;2023-07-31T10:34:53;20.5;77.4
79750;SHT31;69233;51.968;5.658;2023-07-31T10:37:25;20.5;77.8
79750;SHT31;69233;51.968;5.658;2023-07-31T10:40:00;20.5;78.0
79750;SHT31;69233;51.968;5.658;2023-07-31T10:42:32;20.5;77.8
79750;SHT31;69233;51.968;5.658;2023-07-31T10:45:05;20.6;78.3
79750;SHT31;69233;51.968;5.658;2023-07-31T10:47:43;20.6;77.9
79750;SHT31;69233;51.968;5.658;2023-07-31T10:50:16;20.6;78.5
79750;SHT31;69233;51.968;5.658;2023-07-31T10:52:52;20.6;77.9
79750;SHT31;69233;51.968;5.658;2023-07-31T10:55:27;20.7;78.5
79750;SHT31;69233;51.968;5.658;2023-07-31T10:58:05;20.7;78.8
79750;SHT31;69233;51.968;5.658;2023-07-31T11:00:33;20.7;78.3
79750;SHT31;69233;51.968;5.658;2023-07-31T11:03:04;20.7;78.7
79750;SHT31;69233;51.968;5.658;2023-07-31T11:05:53;20.8;78.5
79750;SHT31;69233;51.968;5.658;2023-07-31T11:08:24;20.8;77.8
79750;SHT31;69233;51.968;5.658;2023-07-31T11:11:07;20.8;78.1
79750;SHT31;69233;51.968;5.658;2023-07-31T11:13:46;20.8;77.7
79750;SHT31;69233;51.968;5.658;2023-07-31T11:16:18;20.8;78.0
79750;SHT31;69233;51.968;5.658;2023-07-31T11:18:49;20.8;78.1
79750;SHT31;69233;51.968;5.658;2023-07-31T11:21:20;20.8;78.3
79750;SHT31;69233;51.968;5.658;2023-07-31T11:23:52;20.8;78.1
79750;SHT31;69233;51.968;5.658;2023-07-31T11:26:23;20.8;78.2
79750;SHT31;69233;51.968;5.658;2023-07-31T11:28:53;20.8;78.7
79750;SHT31;69233;51.968;5.658;2023-07-31T11:31:23;20.8;78.1
79750;SHT31;69233;51.968;5.658;2023-07-31T11:34:08;20.8;78.3
79750;SHT31;69233;51.968;5.658;2023-07-31T11:36:37;20.9;78.4
79750;SHT31;69233;51.968;5.658;2023-07-31T11:39:09;20.9;77.9
79750;SHT31;69233;51.968;5.658;2023-07-31T11:41:42;20.9;77.8
79750;SHT31;69233;51.968;5.658;2023-07-31T11:44:13;20.9;78.0
79750;SHT31;69233;51.968;5.658;2023-07-31T11:46:43;20.9;78.8
79750;SHT31;69233;51.968;5.658;2023-07-31T11:49:13;21.0;78.8
79750;SHT31;69233;51.968;5.658;2023-07-31T11:51:43;21.0;79.4
79750;SHT31;69233;51.968;5.658;2023-07-31T11:54:12;21.0;77.7
79750;SHT31;69233;51.968;5.658;2023-07-31T11:56:43;21.1;79.1
79750;SHT31;69233;51.968;5.658;2023-07-31T11:59:13;21.1;77.3
79750;SHT31;69233;51.968;5.658;2023-07-31T12:01:45;21.2;77.1
79750;SHT31;69233;51.968;5.658;2023-07-31T12:04:17;21.2;77.3
79750;SHT31;69233;51.968;5.658;2023-07-31T12:06:49;21.2;77.5
79750;SHT31;69233;51.968;5.658;2023-07-31T12:09:21;21.3;78.1
79750;SHT31;69233;51.968;5.658;2023-07-31T12:11:51;21.3;77.9
79750;SHT31;69233;51.968;5.658;2023-07-31T12:14:24;21.3;77.5
79750;SHT31;69233;51.968;5.658;2023-07-31T12:16:55;21.4;76.8
79750;SHT31;69233;51.968;5.658;2023-07-31T12:19:26;21.4;75.7
79750;SHT31;69233;51.968;5.658;2023-07-31T12:21:58;21.4;76.1
79750;SHT31;69233;51.968;5.658;2023-07-31T12:24:28;21.4;75.1
79750;SHT31;69233;51.968;5.658;2023-07-31T12:27:00;21.5;75.5
79750;SHT31;69233;51.968;5.658;2023-07-31T12:29:36;21.4;74.7
79750;SHT31;69233;51.968;5.658;2023-07-31T12:32:20;21.4;74.6
79750;SHT31;69233;51.968;5.658;2023-07-31T12:34:50;21.4;75.6
79750;SHT31;69233;51.968;5.658;2023-07-31T12:37:22;21.4;75.5
79750;SHT31;69233;51.968;5.658;2023-07-31T12:39:51;21.4;76.2
79750;SHT31;69233;51.968;5.658;2023-07-31T12:42:21;21.4;76.2
79750;SHT31;69233;51.968;5.658;2023-07-31T12:44:53;21.3;77.2
79750;SHT31;69233;51.968;5.658;2023-07-31T12:47:22;21.3;77.2
79750;SHT31;69233;51.968;5.658;2023-07-31T12:49:52;21.4;78.4
79750;SHT31;69233;51.968;5.658;2023-07-31T12:52:21;21.4;77.2
79750;SHT31;69233;51.968;5.658;2023-07-31T12:54:51;21.4;77.3
79750;SHT31;69233;51.968;5.658;2023-07-31T12:57:21;21.4;77.6
79750;SHT31;69233;51.968;5.658;2023-07-31T12:59:50;21.5;76.5
79750;SHT31;69233;51.968;5.658;2023-07-31T13:02:20;21.5;75.9
79750;SHT31;69233;51.968;5.658;2023-07-31T13:04:50;21.5;76.6
79750;SHT31;69233;51.968;5.658;2023-07-31T13:07:20;21.5;75.9
79750;SHT31;69233;51.968;5.658;2023-07-31T13:09:50;21.5;76.0
79750;SHT31;69233;51.968;5.658;2023-07-31T13:12:19;21.6;76.1
79750;SHT31;69233;51.968;5.658;2023-07-31T13:14:50;21.6;75.9
79750;SHT31;69233;51.968;5.658;2023-07-31T13:17:21;21.6;75.4
79750;SHT31;69233;51.968;5.658;2023-07-31T13:19:51;21.6;75.7
79750;SHT31;69233;51.968;5.658;2023-07-31T13:22:20;21.6;76.8
79750;SHT31;69233;51.968;5.658;2023-07-31T13:24:50;21.6;76.2
79750;SHT31;69233;51.968;5.658;2023-07-31T13:27:19;21.6;75.5
79750;SHT31;69233;51.968;5.658;2023-07-31T13:29:49;21.6;75.0
79750;SHT31;69233;51.968;5.658;2023-07-31T13:32:20;21.6;75.3
79750;SHT31;69233;51.968;5.658;2023-07-31T13:34:51;21.6;74.7
79750;SHT31;69233;51.968;5.658;2023-07-31T13:37:20;21.6;75.0
79750;SHT31;69233;51.968;5.658;2023-07-31T13:39:50;21.6;74.9
79750;SHT31;69233;51.968;5.658;2023-07-31T13:42:19;21.6;75.5
79750;SHT31;69233;51.968;5.658;2023-07-31T13:44:49;21.5;75.3
79750;SHT31;69233;51.968;5.658;2023-07-31T13:47:19;21.5;75.1
79750;SHT31;69233;51.968;5.658;2023-07-31T13:49:50;21.4;75.6
79750;SHT31;69233;51.968;5.658;2023-07-31T13:52:22;21.3;76.4
79750;SHT31;69233;51.968;5.658;2023-07-31T13:54:51;21.3;77.0
79750;SHT31;69233;51.968;5.658;2023-07-31T13:57:21;21.2;77.5
79750;SHT31;69233;51.968;5.658;2023-07-31T13:59:50;21.2;77.2
79750;SHT31;69233;51.968;5.658;2023-07-31T14:02:20;21.2;78.1
79750;SHT31;69233;51.968;5.658;2023-07-31T14:04:49;21.2;77.5
79750;SHT31;69233;51.968;5.658;2023-07-31T14:07:19;21.2;78.0
79750;SHT31;69233;51.968;5.658;2023-07-31T14:09:48;21.1;78.6
79750;SHT31;69233;51.968;5.658;2023-07-31T14:12:18;21.1;78.0
79750;SHT31;69233;51.968;5.658;2023-07-31T14:14:47;21.1;77.4
79750;SHT31;69233;51.968;5.658;2023-07-31T14:17:17;21.1;77.6
79750;SHT31;69233;51.968;5.658;2023-07-31T14:19:46;21.1;77.4
79750;SHT31;69233;51.968;5.658;2023-07-31T14:22:24;21.1;77.6
79750;SHT31;69233;51.968;5.658;2023-07-31T14:24:56;21.1;77.3
79750;SHT31;69233;51.968;5.658;2023-07-31T14:27:26;21.1;77.8
79750;SHT31;69233;51.968;5.658;2023-07-31T14:29:55;21.1;78.1
79750;SHT31;69233;51.968;5.658;2023-07-31T14:32:25;21.1;77.6
79750;SHT31;69233;51.968;5.658;2023-07-31T14:34:55;21.1;77.6
79750;SHT31;69233;51.968;5.658;2023-07-31T14:37:26;21.1;77.7
79750;SHT31;69233;51.968;5.658;2023-07-31T14:39:56;21.1;77.5
79750;SHT31;69233;51.968;5.658;2023-07-31T14:42:26;21.1;78.1
79750;SHT31;69233;51.968;5.658;2023-07-31T14:44:55;21.1;78.0
79750;SHT31;69233;51.968;5.658;2023-07-31T14:47:25;21.1;77.8
79750;SHT31;69233;51.968;5.658;2023-07-31T14:49:54;21.1;77.9
79750;SHT31;69233;51.968;5.658;2023-07-31T14:52:24;21.1;77.9
79750;SHT31;69233;51.968;5.658;2023-07-31T14:54:54;21.1;77.6
79750;SHT31;69233;51.968;5.658;2023-07-31T14:57:23;21.1;77.3
79750;SHT31;69233;51.968;5.658;2023-07-31T14:59:53;21.2;76.8
79750;SHT31;69233;51.968;5.658;2023-07-31T15:02:23;21.2;76.9
79750;SHT31;69233;51.968;5.658;2023-07-31T15:04:52;21.2;77.4
79750;SHT31;69233;51.968;5.658;2023-07-31T15:07:22;21.2;76.8
79750;SHT31;69233;51.968;5.658;2023-07-31T15:09:51;21.2;77.1
79750;SHT31;69233;51.968;5.658;2023-07-31T15:12:21;21.2;76.9
79750;SHT31;69233;51.968;5.658;2023-07-31T15:14:53;21.2;77.4
79750;SHT31;69233;51.968;5.658;2023-07-31T15:17:23;21.2;77.2
79750;SHT31;69233;51.968;5.658;2023-07-31T15:19:52;21.2;76.8
79750;SHT31;69233;51.968;5.658;2023-07-31T15:22:22;21.2;76.3
79750;SHT31;69233;51.968;5.658;2023-07-31T15:24:52;21.2;76.8
79750;SHT31;69233;51.968;5.658;2023-07-31T15:27:21;21.2;76.7
79750;SHT31;69233;51.968;5.658;2023-07-31T15:29:51;21.2;76.9
79750;SHT31;69233;51.968;5.658;2023-07-31T15:32:21;21.2;77.2
79750;SHT31;69233;51.968;5.658;2023-07-31T15:34:51;21.2;77.3
79750;SHT31;69233;51.968;5.658;2023-07-31T15:37:22;21.2;77.0
79750;SHT31;69233;51.968;5.658;2023-07-31T15:39:52;21.2;76.8
79750;SHT31;69233;51.968;5.658;2023-07-31T15:42:21;21.1;77.0
79750;SHT31;69233;51.968;5.658;2023-07-31T15:44:53;21.1;77.3
79750;SHT31;69233;51.968;5.658;2023-07-31T15:47:22;21.1;77.5
79750;SHT31;69233;51.968;5.658;2023-07-31T15:49:52;21.0;78.0
79750;SHT31;69233;51.968;5.658;2023-07-31T15:52:21;21.0;77.6
79750;SHT31;69233;51.968;5.658;2023-07-31T15:54:51;21.0;78.1
79750;SHT31;69233;51.968;5.658;2023-07-31T15:57:20;21.0;77.5
79750;SHT31;69233;51.968;5.658;2023-07-31T15:59:50;21.0;77.6
79750;SHT31;69233;51.968;5.658;2023-07-31T16:02:21;21.0;77.7
79750;SHT31;69233;51.968;5.658;2023-07-31T16:04:51;20.9;77.9
79750;SHT31;69233;51.968;5.658;2023-07-31T16:07:21;20.9;78.3
79750;SHT31;69233;51.968;5.658;2023-07-31T16:09:51;20.9;78.5
79750;SHT31;69233;51.968;5.658;2023-07-31T16:12:20;20.8;78.7
79750;SHT31;69233;51.968;5.658;2023-07-31T16:14:50;20.8;78.6
79750;SHT31;69233;51.968;5.658;2023-07-31T16:17:19;20.8;78.6
79750;SHT31;69233;51.968;5.658;2023-07-31T16:19:49;20.7;78.7
79750;SHT31;69233;51.968;5.658;2023-07-31T16:22:21;20.7;78.5